Time;durP1;ratioP1;P1;durP2;ratioP2;P2;SDS_P1;SDS_P2;PMS_P1;PMS_P2;Temp;Humidity;BMP_temperature;BMP_pressure;BME280_temperature;BME280_humidity;BME280_pressure;Samples;Min_cycle;Max_cycle;Signal;HPM_P1;HPM_P2
2021/01/01 00:01:33;;;;;;;53.87;30.50;;;;;;;4.86;100.00;95999.84;6214854;23;20170;-89
2021/01/01 00:04:00;;;;;;;26.73;18.83;;;;;;;4.83;100.00;96000.91;6214984;23;20205;-91
2021/01/01 00:06:27;;;;;;;15.73;12.40;;;;;;;4.89;100.00;96005.59;6214712;23;20166;-88
2021/01/01 00:08:54;;;;;;;26.60;19.77;;;;;;;4.73;100.00;96018.25;6214845;23;20257;-90
2021/01/01 00:11:21;;;;;;;18.57;16.17;;;;;;;4.70;100.00;96011.53;6215344;23;20590;-89
2021/01/01 00:13:47;;;;;;;19.07;13.97;;;;;;;4.72;100.00;96014.00;6214527;23;20170;-91
2021/01/01 00:16:15;;;;;;;19.23;14.83;;;;;;;4.75;100.00;96013.75;6215054;23;20281;-89
2021/01/01 00:18:43;;;;;;;26.57;18.50;;;;;;;5.00;100.00;96021.16;6216882;23;20640;-91
2021/01/01 00:21:10;;;;;;;46.20;28.80;;;;;;;4.59;100.00;96019.41;6216759;23;20175;-89
2021/01/01 00:23:38;;;;;;;32.60;21.03;;;;;;;4.74;100.00;96023.31;6216996;23;20260;-89
2021/01/01 00:26:11;;;;;;;24.10;16.57;;;;;;;4.63;100.00;96035.59;6216797;23;20174;-89
2021/01/01 00:28:43;;;;;;;48.83;30.37;;;;;;;4.81;100.00;96036.66;6216826;23;20165;-88
2021/01/01 00:31:15;;;;;;;37.43;24.27;;;;;;;4.78;100.00;96034.34;6217091;23;20166;-89
2021/01/01 00:33:42;;;;;;;25.47;18.17;;;;;;;5.00;100.00;96035.94;6216690;23;20176;-89
2021/01/01 00:36:09;;;;;;;25.43;16.93;;;;;;;4.81;100.00;96041.88;6217090;23;20586;-89
2021/01/01 00:38:37;;;;;;;30.03;16.40;;;;;;;4.77;100.00;96043.91;6216573;23;20174;-89
2021/01/01 00:41:04;;;;;;;31.53;21.97;;;;;;;4.49;100.00;96037.56;6216089;23;20182;-89
2021/01/01 00:43:31;;;;;;;21.33;14.17;;;;;;;4.34;100.00;96044.03;6216635;23;20177;-89
2021/01/01 00:45:58;;;;;;;17.70;13.20;;;;;;;4.74;100.00;96044.16;6216584;23;20177;-89
2021/01/01 00:48:25;;;;;;;20.00;12.63;;;;;;;4.86;100.00;96044.94;6204183;23;20177;-89
2021/01/01 00:50:52;;;;;;;14.83;10.17;;;;;;;5.05;100.00;96056.38;6216859;23;20162;-89
2021/01/01 00:53:19;;;;;;;29.97;22.40;;;;;;;5.20;100.00;96060.31;6217399;23;20566;-89
2021/01/01 00:55:46;;;;;;;22.60;16.67;;;;;;;4.98;100.00;96061.28;6217156;23;20693;-89
2021/01/01 00:58:13;;;;;;;26.23;19.70;;;;;;;4.73;100.00;96062.53;6218335;23;20166;-89
2021/01/01 01:00:40;;;;;;;15.73;10.90;;;;;;;4.61;100.00;96060.94;6217721;23;20245;-89
2021/01/01 01:03:06;;;;;;;14.77;10.40;;;;;;;4.62;100.00;96060.81;6216949;23;20304;-89
2021/01/01 01:05:34;;;;;;;19.93;9.87;;;;;;;4.69;100.00;96061.13;6216771;23;20206;-89
2021/01/01 01:08:01;;;;;;;12.30;9.37;;;;;;;4.79;100.00;96071.63;6216919;23;20174;-89
2021/01/01 01:10:28;;;;;;;18.27;13.80;;;;;;;4.86;100.00;96068.38;6217063;23;20174;-89
2021/01/01 01:12:55;;;;;;;18.40;12.67;;;;;;;4.84;100.00;96072.84;6217093;23;20173;-89
2021/01/01 01:15:22;;;;;;;17.73;13.03;;;;;;;4.68;100.00;96070.72;6216222;23;20190;-89
2021/01/01 01:17:49;;;;;;;32.23;22.20;;;;;;;4.68;100.00;96067.31;6217312;23;20170;-89
2021/01/01 01:20:16;;;;;;;30.63;19.90;;;;;;;4.70;100.00;96070.59;6217465;23;20197;-88
2021/01/01 01:22:44;;;;;;;12.87;9.13;;;;;;;4.63;100.00;96078.06;6216604;23;20214;-88
2021/01/01 01:25:12;;;;;;;16.77;9.50;;;;;;;4.68;100.00;96078.53;6216838;23;20183;-89
2021/01/01 01:27:38;;;;;;;16.57;11.83;;;;;;;4.51;100.00;96072.09;6216587;23;20170;-88
2021/01/01 01:30:07;;;;;;;20.43;10.53;;;;;;;4.48;100.00;96069.75;6217121;23;20172;-88
2021/01/01 01:32:34;;;;;;;54.30;34.60;;;;;;;4.44;100.00;96070.97;6216975;23;20224;-89
2021/01/01 01:35:00;;;;;;;49.50;33.10;;;;;;;4.48;100.00;96074.13;6216591;23;20201;-88
2021/01/01 01:37:27;;;;;;;40.03;28.60;;;;;;;4.39;100.00;96075.69;6217248;23;20162;-88
2021/01/01 01:39:55;;;;;;;46.30;29.93;;;;;;;4.19;100.00;96079.94;6217222;23;20590;-88
2021/01/01 01:42:22;;;;;;;24.77;19.53;;;;;;;4.28;100.00;96075.75;6216741;23;20717;-89
2021/01/01 01:44:49;;;;;;;29.73;20.40;;;;;;;4.15;100.00;96075.09;6216784;23;20162;-89
2021/01/01 01:47:20;;;;;;;31.80;22.30;;;;;;;3.95;100.00;96077.53;6217098;23;20174;-90
2021/01/01 01:49:47;;;;;;;31.97;22.53;;;;;;;3.78;100.00;96075.44;6217626;23;20159;-88
2021/01/01 01:52:14;;;;;;;33.83;24.07;;;;;;;4.01;100.00;96078.81;6217176;23;20175;-90
2021/01/01 01:54:42;;;;;;;30.47;21.53;;;;;;;3.97;100.00;96074.78;6217400;23;20177;-88
2021/01/01 01:57:11;;;;;;;36.90;27.57;;;;;;;4.22;100.00;96089.25;6218344;23;20229;-91
2021/01/01 01:59:40;;;;;;;24.67;17.33;;;;;;;4.27;100.00;96094.94;6217264;23;20170;-90
2021/01/01 02:02:07;;;;;;;23.77;17.23;;;;;;;4.43;100.00;96091.88;6216841;23;20171;-89
2021/01/01 02:04:34;;;;;;;14.90;11.50;;;;;;;4.34;100.00;96090.88;6217122;23;20174;-89
2021/01/01 02:07:01;;;;;;;13.53;9.03;;;;;;;4.31;100.00;96088.53;6215663;23;20170;-91
2021/01/01 02:09:28;;;;;;;10.97;8.67;;;;;;;4.52;100.00;96093.75;6217497;23;20181;-89
2021/01/01 02:11:55;;;;;;;10.50;7.53;;;;;;;4.33;100.00;96096.19;6217840;23;20178;-89
2021/01/01 02:14:23;;;;;;;6.60;5.93;;;;;;;4.17;100.00;96096.63;6216906;23;20635;-89
2021/01/01 02:16:51;;;;;;;6.97;4.77;;;;;;;4.18;100.00;96104.28;6217168;23;20190;-89
2021/01/01 02:19:18;;;;;;;13.17;9.70;;;;;;;4.39;100.00;96098.31;6216650;23;20174;-89
2021/01/01 02:21:48;;;;;;;10.93;8.53;;;;;;;4.22;100.00;96099.66;6216112;23;20285;-89
2021/01/01 02:24:16;;;;;;;7.43;6.70;;;;;;;4.27;100.00;96095.75;6216539;23;20166;-89
2021/01/01 02:26:43;;;;;;;10.97;6.70;;;;;;;3.95;100.00;96094.88;6216694;23;20166;-89
2021/01/01 02:29:10;;;;;;;14.07;9.93;;;;;;;4.16;100.00;96102.78;6216509;23;20202;-89
2021/01/01 02:31:36;;;;;;;21.10;11.93;;;;;;;3.87;100.00;96100.69;6216960;23;20170;-89
2021/01/01 02:34:03;;;;;;;18.87;12.40;;;;;;;3.78;100.00;96097.06;6217163;23;20228;-89
2021/01/01 02:36:30;;;;;;;18.80;13.60;;;;;;;4.04;100.00;96102.78;6216160;23;20194;-89
2021/01/01 02:38:57;;;;;;;19.50;12.23;;;;;;;3.91;100.00;96104.72;6215906;23;20174;-89
2021/01/01 02:41:25;;;;;;;11.40;8.70;;;;;;;3.92;100.00;96110.75;6216264;23;20170;-89
2021/01/01 02:43:51;;;;;;;12.13;7.63;;;;;;;3.90;100.00;96103.06;6216573;23;20654;-88
2021/01/01 02:46:18;;;;;;;10.00;7.73;;;;;;;3.90;100.00;96110.03;6216660;23;20204;-90
2021/01/01 02:48:45;;;;;;;7.47;6.67;;;;;;;3.94;100.00;96106.25;6216150;23;20170;-88
2021/01/01 02:51:12;;;;;;;6.97;6.07;;;;;;;4.00;100.00;96103.97;6216124;23;20174;-88
2021/01/01 02:53:39;;;;;;;7.47;5.93;;;;;;;3.80;100.00;96110.75;6216535;23;20193;-91
2021/01/01 02:56:06;;;;;;;19.90;14.03;;;;;;;3.89;100.00;96103.19;6216875;23;20599;-88
2021/01/01 02:58:34;;;;;;;37.37;27.17;;;;;;;3.48;100.00;96105.47;6216485;23;20555;-88
2021/01/01 03:01:01;;;;;;;31.60;22.60;;;;;;;3.35;100.00;96099.56;6216333;23;20213;-89
2021/01/01 03:03:27;;;;;;;23.93;16.97;;;;;;;3.46;100.00;96098.75;6216720;23;20547;-88
2021/01/01 03:05:54;;;;;;;24.77;17.53;;;;;;;3.51;100.00;96094.03;6216259;23;20178;-88
2021/01/01 03:08:21;;;;;;;22.90;16.70;;;;;;;3.68;100.00;96103.94;6216865;23;20268;-89
2021/01/01 03:10:48;;;;;;;20.00;15.17;;;;;;;3.85;100.00;96101.78;6216299;23;20236;-88
2021/01/01 03:13:14;;;;;;;15.27;12.83;;;;;;;3.92;100.00;96106.38;6215824;23;20166;-88
2021/01/01 03:15:42;;;;;;;19.13;12.80;;;;;;;3.65;100.00;96108.53;6216279;23;20221;-88
2021/01/01 03:18:10;;;;;;;17.77;13.00;;;;;;;3.49;100.00;96111.50;6215797;23;20171;-88
2021/01/01 03:20:36;;;;;;;12.97;9.97;;;;;;;3.54;100.00;96112.00;6215887;23;20167;-87
2021/01/01 03:23:03;;;;;;;13.83;9.57;;;;;;;3.79;100.00;96109.13;6215455;23;20687;-88
2021/01/01 03:25:30;;;;;;;12.93;9.83;;;;;;;3.91;100.00;96109.09;6216189;23;20515;-89
2021/01/01 03:27:57;;;;;;;12.30;9.03;;;;;;;3.63;100.00;96120.81;6215751;23;20174;-88
2021/01/01 03:30:24;;;;;;;6.50;5.83;;;;;;;3.26;100.00;96121.09;6216057;23;20575;-88
2021/01/01 03:32:52;;;;;;;7.40;6.00;;;;;;;3.35;100.00;96120.34;6215788;23;20173;-88
2021/01/01 03:35:19;;;;;;;8.70;7.73;;;;;;;3.51;100.00;96123.44;6215289;23;20666;-88
2021/01/01 03:37:45;;;;;;;12.07;8.27;;;;;;;3.63;100.00;96124.25;6215984;23;20261;-88
2021/01/01 03:40:12;;;;;;;10.03;8.23;;;;;;;3.67;100.00;96128.28;6215798;23;20170;-88
2021/01/01 03:42:39;;;;;;;15.40;9.50;;;;;;;3.47;100.00;96132.41;6215352;23;20209;-89
2021/01/01 03:45:10;;;;;;;13.13;9.07;;;;;;;3.52;100.00;96127.69;6215598;23;20174;-88
2021/01/01 03:47:37;;;;;;;16.33;13.53;;;;;;;3.45;100.00;96125.69;6215334;23;20166;-88
2021/01/01 03:50:06;;;;;;;58.40;31.90;;;;;;;3.22;100.00;96128.28;6215578;23;20174;-89
2021/01/01 03:52:33;;;;;;;18.43;12.83;;;;;;;3.34;100.00;96129.09;6217192;23;20174;-88
2021/01/01 03:55:00;;;;;;;10.03;8.43;;;;;;;3.52;100.00;96130.28;6217444;23;20174;-88
2021/01/01 03:57:27;;;;;;;12.47;7.87;;;;;;;3.66;100.00;96129.22;6217325;23;20248;-88
2021/01/01 03:59:54;;;;;;;8.67;6.87;;;;;;;3.62;100.00;96134.78;6217260;23;20166;-88
2021/01/01 04:02:20;;;;;;;8.93;5.97;;;;;;;3.70;100.00;96140.19;6217378;23;20174;-88
2021/01/01 04:04:47;;;;;;;9.37;7.40;;;;;;;3.95;100.00;96149.50;6217283;23;20254;-88
2021/01/01 04:07:16;;;;;;;11.70;8.00;;;;;;;3.64;100.00;96143.25;6217442;23;20517;-88
2021/01/01 04:09:43;;;;;;;10.37;8.50;;;;;;;3.46;100.00;96135.13;6217243;23;20174;-88
2021/01/01 04:12:10;;;;;;;16.90;13.77;;;;;;;3.53;100.00;96144.94;6217637;23;20254;-88
2021/01/01 04:14:37;;;;;;;15.80;10.30;;;;;;;3.60;100.00;96149.66;6217176;23;20206;-88
2021/01/01 04:17:04;;;;;;;8.73;7.57;;;;;;;3.62;100.00;96158.16;6217616;23;20197;-88
2021/01/01 04:19:31;;;;;;;13.63;6.90;;;;;;;3.45;100.00;96147.28;6218193;23;20170;-87
2021/01/01 04:21:57;;;;;;;21.13;13.43;;;;;;;3.62;100.00;96158.16;6232675;23;20201;-87
2021/01/01 04:24:25;;;;;;;35.00;23.00;;;;;;;3.56;100.00;96162.88;6242921;23;20154;-86
2021/01/01 04:26:52;;;;;;;28.97;16.17;;;;;;;3.32;100.00;96159.56;6245540;23;20158;-87
2021/01/01 04:29:19;;;;;;;40.87;27.80;;;;;;;3.24;100.00;96151.53;6244715;23;20154;-87
2021/01/01 04:31:46;;;;;;;50.27;31.10;;;;;;;3.12;100.00;96160.22;6240542;23;20167;-88
2021/01/01 04:34:13;;;;;;;23.50;17.57;;;;;;;3.38;100.00;96161.69;6237646;23;20174;-89
2021/01/01 04:36:39;;;;;;;33.07;23.33;;;;;;;3.47;100.00;96161.00;6237934;23;20201;-88
2021/01/01 04:39:07;;;;;;;26.97;17.50;;;;;;;3.47;100.00;96161.00;6238836;23;20227;-88
2021/01/01 04:41:36;;;;;;;15.80;10.27;;;;;;;3.57;100.00;96159.34;6238246;23;20262;-89
2021/01/01 04:44:04;;;;;;;19.17;11.90;;;;;;;3.27;100.00;96167.69;6237319;23;20170;-87
2021/01/01 04:46:31;;;;;;;18.50;11.80;;;;;;;3.39;100.00;96171.13;6237776;23;20170;-87
2021/01/01 04:49:00;;;;;;;16.13;10.70;;;;;;;3.30;100.00;96172.66;6237621;23;20281;-87
2021/01/01 04:51:27;;;;;;;14.00;9.40;;;;;;;3.28;100.00;96186.72;6237213;23;20166;-88
2021/01/01 04:53:56;;;;;;;12.40;9.73;;;;;;;3.40;100.00;96180.59;6235730;23;20166;-87
2021/01/01 04:56:23;;;;;;;14.77;9.70;;;;;;;3.45;100.00;96193.22;6235047;23;20194;-88
2021/01/01 04:58:54;;;;;;;13.17;8.70;;;;;;;3.49;100.00;96195.47;6231985;23;20166;-87
2021/01/01 05:01:24;;;;;;;9.87;7.27;;;;;;;3.54;100.00;96197.75;6232216;23;20675;-87
2021/01/01 05:03:50;;;;;;;8.63;7.43;;;;;;;3.68;100.00;96194.91;6231894;23;20170;-87
2021/01/01 05:06:28;;;;;;;11.10;7.13;;;;;;;3.56;100.00;96214.03;6231849;23;20493;-87
2021/01/01 05:08:55;;;;;;;9.33;6.80;;;;;;;3.54;100.00;96211.56;6232008;23;20166;-88
2021/01/01 05:11:22;;;;;;;10.27;6.30;;;;;;;3.75;100.00;96216.88;6234899;23;20174;-87
2021/01/01 05:13:57;;;;;;;8.13;6.23;;;;;;;3.65;100.00;96205.53;6237158;23;20281;-88
2021/01/01 05:16:24;;;;;;;6.87;6.07;;;;;;;3.62;100.00;96204.94;6237084;23;20182;-87
2021/01/01 05:18:52;;;;;;;12.20;8.40;;;;;;;3.49;100.00;96211.06;6233670;23;20166;-88
2021/01/01 05:21:24;;;;;;;15.17;10.63;;;;;;;3.53;100.00;96209.06;6232675;23;20225;-88
2021/01/01 05:23:51;;;;;;;10.63;6.93;;;;;;;3.55;100.00;96214.97;6233939;23;20665;-88
2021/01/01 05:26:19;;;;;;;15.97;10.03;;;;;;;3.61;100.00;96218.88;6231990;23;20170;-87
2021/01/01 05:29:04;;;;;;;24.10;16.57;;;;;;;3.55;100.00;96221.00;6236740;23;20185;-87
2021/01/01 05:31:32;;;;;;;27.17;20.23;;;;;;;3.42;100.00;96216.84;6218020;23;20212;-89
2021/01/01 05:34:02;;;;;;;21.60;16.23;;;;;;;3.52;100.00;96223.00;6216390;23;20300;-88
2021/01/01 05:36:31;;;;;;;10.40;7.67;;;;;;;3.43;100.00;96226.28;6216309;23;20198;-88
2021/01/01 05:38:59;;;;;;;15.30;12.13;;;;;;;3.32;100.00;96229.69;6216178;23;20174;-88
2021/01/01 05:41:33;;;;;;;14.23;11.80;;;;;;;3.09;100.00;96240.03;6216142;23;20181;-88
2021/01/01 05:44:15;;;;;;;16.40;11.07;;;;;;;3.38;100.00;96244.00;6216499;23;20205;-88
2021/01/01 05:47:04;;;;;;;13.63;9.83;;;;;;;3.19;100.00;96254.94;6216103;23;20189;-88
2021/01/01 05:49:33;;;;;;;17.67;12.90;;;;;;;3.01;100.00;96252.75;6199225;23;20174;-88
2021/01/01 05:52:09;;;;;;;10.97;9.50;;;;;;;3.10;100.00;96259.84;6216029;23;20181;-88
2021/01/01 05:54:37;;;;;;;11.47;7.60;;;;;;;3.06;100.00;96260.22;6216305;23;20239;-88
2021/01/01 05:57:05;;;;;;;10.67;8.53;;;;;;;2.98;100.00;96268.56;6217041;23;20229;-88
2021/01/01 05:59:36;;;;;;;11.60;9.43;;;;;;;3.02;100.00;96264.81;6218186;23;20174;-88
2021/01/01 06:02:04;;;;;;;10.80;7.47;;;;;;;3.28;100.00;96267.22;6218472;23;20221;-88
2021/01/01 06:04:32;;;;;;;11.53;8.30;;;;;;;3.36;100.00;96275.31;6218176;23;20174;-88
2021/01/01 06:07:03;;;;;;;12.87;9.63;;;;;;;3.22;100.00;96278.06;6218156;23;20603;-88
2021/01/01 06:09:31;;;;;;;22.80;16.67;;;;;;;3.07;100.00;96280.84;6207081;23;20592;-88
2021/01/01 06:12:00;;;;;;;10.47;7.93;;;;;;;3.37;100.00;96292.53;6217409;23;20174;-88
2021/01/01 06:14:32;;;;;;;10.10;7.87;;;;;;;3.49;100.00;96291.63;6216737;23;20201;-88
2021/01/01 06:17:19;;;;;;;7.80;6.90;;;;;;;3.45;100.00;96291.97;6212286;23;20178;-89
2021/01/01 06:19:47;;;;;;;11.57;8.77;;;;;;;3.40;100.00;96300.13;6216136;23;20267;-91
2021/01/01 06:22:16;;;;;;;16.33;11.00;;;;;;;3.32;100.00;96303.25;6216548;23;20205;-92
2021/01/01 06:24:46;;;;;;;14.20;10.13;;;;;;;3.32;100.00;96299.84;6216568;23;20170;-89
2021/01/01 06:30:23;;;;;;;9.13;6.57;;;;;;;3.40;100.00;96301.88;6124868;23;20164;-90
2021/01/01 06:32:52;;;;;;;6.53;5.90;;;;;;;3.45;100.00;96303.19;6112026;23;20646;-90
2021/01/01 06:35:42;;;;;;;10.03;7.77;;;;;;;3.60;100.00;96300.38;6214289;23;20201;-90
2021/01/01 06:38:09;;;;;;;11.80;9.53;;;;;;;3.67;100.00;96307.63;6215353;23;20281;-91
2021/01/01 06:40:38;;;;;;;23.00;14.20;;;;;;;3.90;100.00;96318.88;6214716;23;20174;-90
2021/01/01 06:43:06;;;;;;;21.00;16.37;;;;;;;3.91;100.00;96312.72;6215083;23;20174;-90
2021/01/01 06:45:43;;;;;;;23.93;19.90;;;;;;;3.95;100.00;96319.38;6214121;23;20597;-90
2021/01/01 06:48:13;;;;;;;26.57;19.53;;;;;;;3.83;100.00;96315.09;6214405;23;20246;-90
2021/01/01 06:50:41;;;;;;;37.27;26.97;;;;;;;4.09;100.00;96323.53;6215682;23;20177;-90
2021/01/01 06:53:10;;;;;;;48.20;35.37;;;;;;;4.17;100.00;96315.94;6216944;23;20170;-91
2021/01/01 06:55:46;;;;;;;81.13;53.67;;;;;;;4.17;100.00;96326.34;6226499;23;20266;-95
2021/01/01 06:58:14;;;;;;;76.10;52.63;;;;;;;4.12;100.00;96325.88;6215385;23;20162;-91
2021/01/01 07:00:59;;;;;;;17.70;15.07;;;;;;;4.33;100.00;96327.75;6215373;23;20651;-88
2021/01/01 07:03:31;;;;;;;14.87;12.10;;;;;;;4.23;100.00;96327.66;6215222;23;20185;-93
2021/01/01 07:06:20;;;;;;;11.03;8.27;;;;;;;4.31;100.00;96327.88;6205243;22;20280;-96
2021/01/01 07:08:50;;;;;;;32.87;22.60;;;;;;;4.67;100.00;96336.38;6191969;23;20175;-96
2021/01/01 07:11:38;;;;;;;35.20;25.70;;;;;;;4.94;100.00;96331.59;6194916;23;20159;-96
2021/01/01 07:17:08;;;;;;;32.83;24.90;;;;;;;5.22;100.00;96335.41;6202144;23;20206;-96
2021/01/01 07:19:42;;;;;;;26.53;20.67;;;;;;;5.56;100.00;96347.50;6197662;23;20169;-96
2021/01/01 07:22:09;;;;;;;14.97;13.27;;;;;;;5.48;100.00;96351.56;6201318;23;20158;-96
2021/01/01 07:27:28;;;;;;;21.80;16.73;;;;;;;5.24;100.00;96354.38;6225783;22;20212;-96
2021/01/01 07:32:33;;;;;;;18.63;12.87;;;;;;;6.19;100.00;96340.50;6180870;22;20234;-96
2021/01/01 07:35:07;;;;;;;13.07;11.27;;;;;;;6.34;100.00;96344.44;6214831;22;20764;-94
2021/01/01 07:37:34;;;;;;;18.23;13.60;;;;;;;6.28;100.00;96344.97;6215390;23;20159;-96
2021/01/01 07:40:02;;;;;;;17.30;14.33;;;;;;;6.26;100.00;96341.63;6216001;23;20166;-95
2021/01/01 07:42:29;;;;;;;36.97;22.33;;;;;;;6.41;100.00;96345.56;6215707;23;20174;-94
2021/01/01 07:45:02;;;;;;;21.87;16.83;;;;;;;6.85;100.00;96348.72;6221844;23;20224;-95
2021/01/01 07:47:42;;;;;;;18.87;14.33;;;;;;;7.15;100.00;96342.59;6226325;23;20245;-96
2021/01/01 07:50:14;;;;;;;25.97;15.67;;;;;;;7.60;100.00;96346.50;6220357;23;20154;-96
2021/01/01 07:52:47;;;;;;;17.00;13.33;;;;;;;7.69;100.00;96343.06;6220801;23;20240;-94
2021/01/01 07:55:21;;;;;;;39.90;28.07;;;;;;;7.73;100.00;96335.75;6233320;23;20169;-96
2021/01/01 07:57:48;;;;;;;36.57;28.10;;;;;;;8.10;100.00;96333.19;6224706;23;20162;-96
2021/01/01 08:00:16;;;;;;;13.07;11.83;;;;;;;8.16;100.00;96337.88;6218344;23;20640;-96
2021/01/01 08:02:43;;;;;;;26.03;23.30;;;;;;;8.21;100.00;96332.19;6221923;23;20174;-96
2021/01/01 08:05:15;;;;;;;25.43;22.70;;;;;;;8.29;100.00;96330.53;6221634;23;20181;-95
2021/01/01 08:07:42;;;;;;;19.60;15.63;;;;;;;8.21;100.00;96334.81;6215479;23;20604;-94
2021/01/01 08:10:09;;;;;;;17.73;13.73;;;;;;;8.53;100.00;96326.63;6215505;23;20170;-96
2021/01/01 08:12:37;;;;;;;10.57;9.47;;;;;;;8.60;100.00;96332.94;6215276;23;20171;-96
2021/01/01 08:15:11;;;;;;;13.00;9.47;;;;;;;8.45;100.00;96332.59;6221597;23;20174;-94
2021/01/01 08:17:41;;;;;;;13.83;9.67;;;;;;;8.51;100.00;96324.13;6217420;23;20205;-96
2021/01/01 08:20:17;;;;;;;11.00;9.00;;;;;;;8.73;100.00;96333.44;6216862;23;20224;-95
2021/01/01 08:25:21;;;;;;;15.03;10.17;;;;;;;9.00;100.00;96329.94;6172420;22;20193;-92
2021/01/01 08:27:48;;;;;;;23.10;20.70;;;;;;;9.13;100.00;96321.75;6224764;23;20500;-95
2021/01/01 08:30:16;;;;;;;16.27;11.70;;;;;;;9.37;100.00;96320.34;6215008;23;20186;-95
2021/01/01 08:32:46;;;;;;;10.03;7.63;;;;;;;9.57;100.00;96311.34;6216047;23;20163;-96
2021/01/01 08:35:13;;;;;;;8.07;6.70;;;;;;;9.83;100.00;96315.78;6217465;23;20241;-96
2021/01/01 08:37:41;;;;;;;9.57;7.70;;;;;;;10.14;100.00;96314.38;6220183;23;20166;-96
2021/01/01 08:40:12;;;;;;;9.23;7.20;;;;;;;10.25;100.00;96305.41;6223183;23;20166;-96
2021/01/01 08:45:49;;;;;;;7.53;5.50;;;;;;;10.28;100.00;96301.69;6215139;23;20189;-96
2021/01/01 08:48:17;;;;;;;7.73;5.57;;;;;;;10.24;100.00;96301.94;6188382;23;20651;-96
2021/01/01 08:50:45;;;;;;;6.50;4.90;;;;;;;10.31;100.00;96302.19;6186454;23;20250;-95
2021/01/01 08:53:18;;;;;;;9.30;5.40;;;;;;;10.59;100.00;96300.19;6186663;23;20520;-95
2021/01/01 08:55:55;;;;;;;9.80;7.57;;;;;;;11.25;100.00;96309.09;6186597;23;20516;-96
2021/01/01 08:58:22;;;;;;;10.43;7.27;;;;;;;11.77;100.00;96308.00;6189139;23;20217;-96
2021/01/01 09:00:49;;;;;;;8.23;5.93;;;;;;;11.78;100.00;96309.66;6190382;23;20183;-96
2021/01/01 09:03:26;;;;;;;7.07;3.97;;;;;;;11.67;100.00;96302.91;6206265;23;20167;-96
2021/01/01 09:05:54;;;;;;;5.83;3.40;;;;;;;11.30;100.00;96306.81;6189604;23;20623;-95
2021/01/01 09:08:24;;;;;;;4.77;3.43;;;;;;;11.41;100.00;96308.31;6187274;23;20254;-95
2021/01/01 09:10:53;;;;;;;7.63;3.80;;;;;;;11.09;100.00;96312.53;6188722;23;20166;-96
2021/01/01 09:13:24;;;;;;;5.83;3.90;;;;;;;11.19;100.00;96307.16;6190554;23;20171;-96
2021/01/01 09:16:07;;;;;;;4.67;3.40;;;;;;;11.27;100.00;96307.16;6191124;23;20198;-96
2021/01/01 09:18:51;;;;;;;6.67;3.57;;;;;;;11.47;100.00;96302.41;6195827;23;20247;-96
2021/01/01 09:21:19;;;;;;;4.53;3.07;;;;;;;11.61;100.00;96307.03;6197182;23;20159;-95
2021/01/01 09:23:53;;;;;;;12.90;9.80;;;;;;;12.11;100.00;96300.75;6199794;23;20167;-96
2021/01/01 09:26:27;;;;;;;9.13;6.73;;;;;;;12.52;100.00;96298.03;6201259;23;20169;-96
2021/01/01 09:29:02;;;;;;;7.27;5.13;;;;;;;12.02;100.00;96293.88;6206827;23;20169;-95
2021/01/01 09:31:29;;;;;;;6.73;6.03;;;;;;;12.16;100.00;96291.53;6201729;23;20171;-96
2021/01/01 09:36:37;;;;;;;11.60;5.87;;;;;;;12.44;100.00;96295.44;6190743;22;20264;-95
2021/01/01 09:39:11;;;;;;;5.53;4.57;;;;;;;12.54;100.00;96290.78;6194594;23;20178;-93
2021/01/01 09:42:10;;;;;;;;;;;;;;;;;;;;;
2021/01/01 09:44:42;;;;;;;5.57;4.57;;;;;;;12.54;100.00;96280.25;6217874;22;20186;-96
2021/01/01 09:47:12;;;;;;;5.73;3.83;;;;;;;12.97;100.00;96283.34;6230912;22;20193;-95
2021/01/01 09:49:38;;;;;;;10.17;6.77;;;;;;;13.31;100.00;96277.72;6215348;22;20210;-96
2021/01/01 09:52:05;;;;;;;35.00;23.03;;;;;;;13.75;100.00;96281.50;6203626;22;20296;-89
2021/01/01 09:54:33;;;;;;;53.70;29.50;;;;;;;14.06;100.00;96272.66;6200783;22;20236;-94
2021/01/01 10:05:41;;;;;;;;;;;;;;;;;;;;;
2021/01/01 10:10:45;;;;;;;6.03;4.03;;;;;;;13.75;100.00;96269.16;6222855;22;20212;-96
2021/01/01 10:18:55;;;;;;;3.90;3.20;;;;;;;13.72;100.00;96268.69;6225475;22;20301;31
2021/01/01 10:23:57;;;;;;;6.50;3.03;;;;;;;13.90;100.00;96261.25;6205035;22;20670;-95
2021/01/01 10:26:28;;;;;;;5.03;3.37;;;;;;;14.34;100.00;96263.13;6217936;22;20224;-95
2021/01/01 10:28:55;;;;;;;5.10;4.00;;;;;;;14.97;100.00;96264.38;6222758;22;20210;-93
2021/01/01 10:31:22;;;;;;;5.77;4.27;;;;;;;15.44;100.00;96260.38;6228593;23;20170;-95
2021/01/01 10:33:49;;;;;;;10.67;7.00;;;;;;;14.71;100.00;96256.91;6230141;23;20173;-96
2021/01/01 10:36:16;;;;;;;6.90;3.20;;;;;;;14.54;100.00;96258.13;6221366;23;20659;-96
2021/01/01 10:38:43;;;;;;;3.53;3.00;;;;;;;14.99;100.00;96254.41;6223664;23;20163;-95
2021/01/01 10:41:12;;;;;;;3.43;3.07;;;;;;;15.61;100.00;96252.19;6215906;23;20167;-94
2021/01/01 10:43:40;;;;;;;12.23;8.23;;;;;;;16.02;100.00;96251.53;6219822;23;20170;-94
2021/01/01 10:46:07;;;;;;;5.60;4.30;;;;;;;15.56;100.00;96251.94;6220045;23;20166;-94
2021/01/01 10:48:34;;;;;;;6.43;5.27;;;;;;;15.95;100.00;96248.00;6219617;23;20167;-95
2021/01/01 10:51:03;;;;;;;3.73;3.33;;;;;;;14.83;100.00;96253.81;6218203;23;20179;-96
2021/01/01 10:53:30;;;;;;;10.43;9.03;;;;;;;14.32;100.00;96243.97;6216863;23;20162;-96
2021/01/01 10:55:57;;;;;;;11.73;8.33;;;;;;;14.48;100.00;96248.28;6217128;23;20197;-96
2021/01/01 10:58:25;;;;;;;11.03;8.20;;;;;;;14.35;100.00;96242.78;6225457;23;20181;-94
2021/01/01 11:00:54;;;;;;;6.93;4.80;;;;;;;14.46;100.00;96244.97;6222870;23;20173;-93
2021/01/01 11:03:21;;;;;;;8.03;7.23;;;;;;;14.41;100.00;96245.53;6219750;23;20248;-96
2021/01/01 11:05:48;;;;;;;7.77;7.00;;;;;;;13.94;100.00;96241.38;6218509;23;20223;-96
2021/01/01 11:08:16;;;;;;;6.40;3.87;;;;;;;14.07;100.00;96242.59;6222053;23;20166;-96
2021/01/01 11:10:42;;;;;;;4.10;3.40;;;;;;;13.99;100.00;96244.34;6216189;23;20170;-96
2021/01/01 11:13:09;;;;;;;6.17;4.13;;;;;;;14.28;100.00;96242.72;6218514;23;20178;-96
2021/01/01 12:27:04;;;;;;;5.40;4.83;;;;;;;14.31;100.00;96283.81;6224892;23;20174;-95
2021/01/01 12:29:31;;;;;;;7.50;4.07;;;;;;;14.30;100.00;96290.91;6219937;23;20204;-95
2021/01/01 12:32:10;;;;;;;4.00;3.53;;;;;;;15.08;100.00;96288.72;6222826;23;20895;-94
2021/01/01 12:34:36;;;;;;;5.83;3.57;;;;;;;14.97;100.00;96300.59;6221221;23;20166;-93
2021/01/01 12:37:03;;;;;;;3.60;3.17;;;;;;;14.57;100.00;96296.63;6216770;23;20190;-95
2021/01/01 12:39:30;;;;;;;5.27;3.70;;;;;;;14.16;100.00;96291.72;6217616;23;20550;-95
2021/01/01 12:41:58;;;;;;;3.50;3.20;;;;;;;13.78;100.00;96291.72;6218770;23;20163;-94
2021/01/01 12:44:25;;;;;;;3.87;3.13;;;;;;;13.49;100.00;96297.75;6207412;23;20213;-93
2021/01/01 12:46:52;;;;;;;6.30;3.10;;;;;;;13.79;100.00;96303.97;6222619;23;20166;-95
2021/01/01 12:49:19;;;;;;;4.90;4.27;;;;;;;14.13;100.00;96302.66;6223437;23;20170;-94
2021/01/01 12:51:49;;;;;;;9.47;4.67;;;;;;;14.69;100.00;96308.41;6221629;23;20232;-95
2021/01/01 12:54:18;;;;;;;5.10;3.97;;;;;;;15.18;100.00;96318.38;6218020;23;20837;-96
2021/01/01 12:56:45;;;;;;;7.87;5.17;;;;;;;14.82;100.00;96321.78;6218121;23;20194;-94
2021/01/01 12:59:13;;;;;;;6.87;5.33;;;;;;;15.38;100.00;96318.59;6218169;23;20170;-92
2021/01/01 13:01:40;;;;;;;23.87;15.07;;;;;;;15.85;100.00;96322.53;6219252;23;20166;-94
2021/01/01 13:04:07;;;;;;;20.67;15.27;;;;;;;16.06;100.00;96317.22;6221760;23;20167;-93
2021/01/01 13:06:34;;;;;;;14.97;13.07;;;;;;;16.17;100.00;96319.38;6221631;23;20177;-96
2021/01/01 13:09:02;;;;;;;21.23;15.70;;;;;;;16.36;100.00;96323.16;6222830;23;20178;-93
2021/01/01 13:11:32;;;;;;;12.07;10.87;;;;;;;16.16;100.00;96323.00;6219283;23;20171;-93
2021/01/01 13:13:59;;;;;;;10.80;7.63;;;;;;;15.71;100.00;96326.91;6222020;23;20167;-93
2021/01/01 13:16:29;;;;;;;16.83;9.90;;;;;;;15.73;100.00;96327.53;6222866;23;20194;-95
2021/01/01 13:18:56;;;;;;;12.30;8.97;;;;;;;15.15;100.00;96332.78;6221720;23;20186;-93
2021/01/01 13:21:38;;;;;;;17.57;11.20;;;;;;;15.66;100.00;96326.66;6220011;23;20217;-95
2021/01/01 13:24:07;;;;;;;21.47;15.80;;;;;;;15.89;100.00;96332.56;6221312;23;20189;-94